sensor_id;sensor_type;location;lat;lon;timestamp;P1;durP1;ratioP1;P2;durP2;ratioP2
18239;SDS011;9244;50.828;4.718;2023-11-19T00:01:41;0.10;;;0.10;;
18239;SDS011;9244;50.828;4.718;2023-11-19T00:04:09;0.53;;;0.53;;
18239;SDS011;9244;50.828;4.718;2023-11-19T00:06:35;0.10;;;0.10;;
18239;SDS011;9244;50.828;4.718;2023-11-19T00:09:05;1.03;;;0.43;;
18239;SDS011;9244;50.828;4.718;2023-11-19T00:11:34;0.30;;;0.30;;
18239;SDS011;9244;50.828;4.718;2023-11-19T00:13:59;0.10;;;0.10;;
18239;SDS011;9244;50.828;4.718;2023-11-19T00:16:27;0.10;;;0.10;;
18239;SDS011;9244;50.828;4.718;2023-11-19T00:18:53;0.10;;;0.10;;
18239;SDS011;9244;50.828;4.718;2023-11-19T00:21:18;0.33;;;0.33;;
18239;SDS011;9244;50.828;4.718;2023-11-19T00:23:46;0.10;;;0.10;;
18239;SDS011;9244;50.828;4.718;2023-11-19T00:26:15;0.23;;;0.23;;
18239;SDS011;9244;50.828;4.718;2023-11-19T00:28:40;1.37;;;1.27;;
18239;SDS011;9244;50.828;4.718;2023-11-19T00:31:06;0.40;;;0.37;;
18239;SDS011;9244;50.828;4.718;2023-11-19T00:33:34;5.37;;;2.17;;
18239;SDS011;9244;50.828;4.718;2023-11-19T00:36:02;2.57;;;2.37;;
18239;SDS011;9244;50.828;4.718;2023-11-19T00:38:28;0.20;;;0.20;;
18239;SDS011;9244;50.828;4.718;2023-11-19T00:40:56;0.37;;;0.37;;
18239;SDS011;9244;50.828;4.718;2023-11-19T00:43:27;0.80;;;0.50;;
18239;SDS011;9244;50.828;4.718;2023-11-19T00:45:53;11.80;;;1.43;;
18239;SDS011;9244;50.828;4.718;2023-11-19T00:48:21;0.43;;;0.43;;
18239;SDS011;9244;50.828;4.718;2023-11-19T00:50:49;0.10;;;0.10;;
18239;SDS011;9244;50.828;4.718;2023-11-19T00:53:14;0.10;;;0.10;;
18239;SDS011;9244;50.828;4.718;2023-11-19T00:55:42;0.20;;;0.20;;
18239;SDS011;9244;50.828;4.718;2023-11-19T00:58:08;0.10;;;0.10;;
18239;SDS011;9244;50.828;4.718;2023-11-19T01:00:34;0.10;;;0.10;;
18239;SDS011;9244;50.828;4.718;2023-11-19T01:03:00;0.10;;;0.10;;
18239;SDS011;9244;50.828;4.718;2023-11-19T01:05:27;0.67;;;0.67;;
18239;SDS011;9244;50.828;4.718;2023-11-19T01:07:53;0.20;;;0.20;;
18239;SDS011;9244;50.828;4.718;2023-11-19T01:10:21;0.80;;;0.80;;
18239;SDS011;9244;50.828;4.718;2023-11-19T01:12:53;0.60;;;0.60;;
18239;SDS011;9244;50.828;4.718;2023-11-19T01:15:21;0.10;;;0.10;;
18239;SDS011;9244;50.828;4.718;2023-11-19T01:17:47;15.37;;;0.83;;
18239;SDS011;9244;50.828;4.718;2023-11-19T01:20:13;5.40;;;2.30;;
18239;SDS011;9244;50.828;4.718;2023-11-19T01:22:39;1.70;;;0.80;;
18239;SDS011;9244;50.828;4.718;2023-11-19T01:25:08;0.20;;;0.20;;
18239;SDS011;9244;50.828;4.718;2023-11-19T01:27:34;0.20;;;0.20;;
18239;SDS011;9244;50.828;4.718;2023-11-19T01:30:00;0.20;;;0.20;;
18239;SDS011;9244;50.828;4.718;2023-11-19T01:32:28;0.77;;;0.77;;
18239;SDS011;9244;50.828;4.718;2023-11-19T01:34:54;1.50;;;1.40;;
18239;SDS011;9244;50.828;4.718;2023-11-19T01:37:20;0.10;;;0.10;;
18239;SDS011;9244;50.828;4.718;2023-11-19T01:39:45;0.83;;;0.60;;
18239;SDS011;9244;50.828;4.718;2023-11-19T01:42:14;0.03;;;0.03;;
18239;SDS011;9244;50.828;4.718;2023-11-19T01:44:40;1.50;;;1.40;;
18239;SDS011;9244;50.828;4.718;2023-11-19T01:47:06;0.10;;;0.10;;
18239;SDS011;9244;50.828;4.718;2023-11-19T01:49:35;0.83;;;0.83;;
18239;SDS011;9244;50.828;4.718;2023-11-19T01:52:05;0.20;;;0.20;;
18239;SDS011;9244;50.828;4.718;2023-11-19T01:54:31;0.10;;;0.10;;
18239;SDS011;9244;50.828;4.718;2023-11-19T01:56:59;0.07;;;0.07;;
18239;SDS011;9244;50.828;4.718;2023-11-19T01:59:26;0.10;;;0.10;;
18239;SDS011;9244;50.828;4.718;2023-11-19T02:01:53;0.30;;;0.30;;
18239;SDS011;9244;50.828;4.718;2023-11-19T02:04:20;0.20;;;0.20;;
18239;SDS011;9244;50.828;4.718;2023-11-19T02:06:47;1.27;;;1.17;;
18239;SDS011;9244;50.828;4.718;2023-11-19T02:09:17;0.30;;;0.20;;
18239;SDS011;9244;50.828;4.718;2023-11-19T02:11:44;0.00;;;0.00;;
18239;SDS011;9244;50.828;4.718;2023-11-19T02:14:17;1.87;;;1.70;;
18239;SDS011;9244;50.828;4.718;2023-11-19T02:16:43;0.10;;;0.10;;
18239;SDS011;9244;50.828;4.718;2023-11-19T02:19:12;0.07;;;0.07;;
18239;SDS011;9244;50.828;4.718;2023-11-19T02:21:38;0.30;;;0.30;;
18239;SDS011;9244;50.828;4.718;2023-11-19T02:24:04;0.20;;;0.20;;
18239;SDS011;9244;50.828;4.718;2023-11-19T02:29:05;0.10;;;0.10;;
18239;SDS011;9244;50.828;4.718;2023-11-19T02:31:34;0.10;;;0.10;;
18239;SDS011;9244;50.828;4.718;2023-11-19T02:34:00;0.20;;;0.20;;
18239;SDS011;9244;50.828;4.718;2023-11-19T02:36:27;0.10;;;0.10;;
18239;SDS011;9244;50.828;4.718;2023-11-19T02:38:53;8.50;;;2.00;;
18239;SDS011;9244;50.828;4.718;2023-11-19T02:41:18;0.33;;;0.33;;
18239;SDS011;9244;50.828;4.718;2023-11-19T02:43:45;0.23;;;0.23;;
18239;SDS011;9244;50.828;4.718;2023-11-19T02:46:13;0.10;;;0.10;;
18239;SDS011;9244;50.828;4.718;2023-11-19T02:48:39;0.27;;;0.27;;
18239;SDS011;9244;50.828;4.718;2023-11-19T02:51:05;7.83;;;1.70;;
18239;SDS011;9244;50.828;4.718;2023-11-19T02:53:40;0.10;;;0.10;;
18239;SDS011;9244;50.828;4.718;2023-11-19T02:56:06;0.00;;;0.00;;
18239;SDS011;9244;50.828;4.718;2023-11-19T02:58:50;0.13;;;0.13;;
18239;SDS011;9244;50.828;4.718;2023-11-19T03:01:21;1.20;;;1.13;;
18239;SDS011;9244;50.828;4.718;2023-11-19T03:04:02;0.33;;;0.33;;
18239;SDS011;9244;50.828;4.718;2023-11-19T03:06:29;0.63;;;0.50;;
18239;SDS011;9244;50.828;4.718;2023-11-19T03:08:54;0.70;;;0.70;;
18239;SDS011;9244;50.828;4.718;2023-11-19T03:11:20;0.10;;;0.10;;
18239;SDS011;9244;50.828;4.718;2023-11-19T03:13:46;0.07;;;0.07;;
18239;SDS011;9244;50.828;4.718;2023-11-19T03:16:12;0.60;;;0.60;;
18239;SDS011;9244;50.828;4.718;2023-11-19T03:18:42;0.20;;;0.20;;
18239;SDS011;9244;50.828;4.718;2023-11-19T03:21:08;0.20;;;0.20;;
18239;SDS011;9244;50.828;4.718;2023-11-19T03:23:34;1.00;;;0.97;;
18239;SDS011;9244;50.828;4.718;2023-11-19T03:26:00;0.10;;;0.10;;
18239;SDS011;9244;50.828;4.718;2023-11-19T03:28:30;0.20;;;0.20;;
18239;SDS011;9244;50.828;4.718;2023-11-19T03:30:56;1.73;;;1.17;;
18239;SDS011;9244;50.828;4.718;2023-11-19T03:33:24;0.10;;;0.10;;
18239;SDS011;9244;50.828;4.718;2023-11-19T03:35:50;0.10;;;0.10;;
18239;SDS011;9244;50.828;4.718;2023-11-19T03:38:17;3.67;;;0.77;;
18239;SDS011;9244;50.828;4.718;2023-11-19T03:40:42;0.10;;;0.10;;
18239;SDS011;9244;50.828;4.718;2023-11-19T03:43:08;0.10;;;0.10;;
18239;SDS011;9244;50.828;4.718;2023-11-19T03:45:34;1.40;;;1.20;;
18239;SDS011;9244;50.828;4.718;2023-11-19T03:48:03;19.47;;;1.23;;
18239;SDS011;9244;50.828;4.718;2023-11-19T03:50:29;0.00;;;0.00;;
18239;SDS011;9244;50.828;4.718;2023-11-19T03:52:57;0.23;;;0.23;;
18239;SDS011;9244;50.828;4.718;2023-11-19T03:55:25;0.63;;;0.63;;
18239;SDS011;9244;50.828;4.718;2023-11-19T03:57:50;0.10;;;0.10;;
18239;SDS011;9244;50.828;4.718;2023-11-19T04:00:18;0.83;;;0.83;;
18239;SDS011;9244;50.828;4.718;2023-11-19T04:02:46;0.10;;;0.10;;
18239;SDS011;9244;50.828;4.718;2023-11-19T04:05:14;0.00;;;0.00;;
18239;SDS011;9244;50.828;4.718;2023-11-19T04:07:42;1.43;;;1.33;;
18239;SDS011;9244;50.828;4.718;2023-11-19T04:10:10;4.27;;;1.50;;
18239;SDS011;9244;50.828;4.718;2023-11-19T04:12:35;1.40;;;1.33;;
18239;SDS011;9244;50.828;4.718;2023-11-19T04:15:03;2.93;;;1.70;;
18239;SDS011;9244;50.828;4.718;2023-11-19T04:17:33;0.00;;;0.00;;
18239;SDS011;9244;50.828;4.718;2023-11-19T04:20:01;0.40;;;0.40;;
18239;SDS011;9244;50.828;4.718;2023-11-19T04:22:31;0.10;;;0.10;;
18239;SDS011;9244;50.828;4.718;2023-11-19T04:24:59;0.10;;;0.10;;
18239;SDS011;9244;50.828;4.718;2023-11-19T04:27:25;0.30;;;0.30;;
18239;SDS011;9244;50.828;4.718;2023-11-19T04:29:51;0.27;;;0.27;;
18239;SDS011;9244;50.828;4.718;2023-11-19T04:32:18;0.10;;;0.10;;
18239;SDS011;9244;50.828;4.718;2023-11-19T04:34:46;0.10;;;0.10;;
18239;SDS011;9244;50.828;4.718;2023-11-19T04:37:12;0.53;;;0.53;;
18239;SDS011;9244;50.828;4.718;2023-11-19T04:39:38;0.10;;;0.10;;
18239;SDS011;9244;50.828;4.718;2023-11-19T04:42:08;0.10;;;0.10;;
18239;SDS011;9244;50.828;4.718;2023-11-19T04:44:33;0.00;;;0.00;;
18239;SDS011;9244;50.828;4.718;2023-11-19T04:47:02;1.20;;;1.10;;
18239;SDS011;9244;50.828;4.718;2023-11-19T04:49:27;0.20;;;0.20;;
18239;SDS011;9244;50.828;4.718;2023-11-19T04:51:53;0.70;;;0.70;;
18239;SDS011;9244;50.828;4.718;2023-11-19T04:54:18;0.83;;;0.83;;
18239;SDS011;9244;50.828;4.718;2023-11-19T04:56:47;0.10;;;0.10;;
18239;SDS011;9244;50.828;4.718;2023-11-19T04:59:13;0.00;;;0.00;;
18239;SDS011;9244;50.828;4.718;2023-11-19T05:01:39;0.10;;;0.10;;
18239;SDS011;9244;50.828;4.718;2023-11-19T05:04:07;1.27;;;1.20;;
18239;SDS011;9244;50.828;4.718;2023-11-19T05:06:34;6.67;;;3.13;;
18239;SDS011;9244;50.828;4.718;2023-11-19T05:09:00;0.63;;;0.63;;
18239;SDS011;9244;50.828;4.718;2023-11-19T05:11:34;1.53;;;1.43;;
18239;SDS011;9244;50.828;4.718;2023-11-19T05:14:04;2.63;;;1.07;;
18239;SDS011;9244;50.828;4.718;2023-11-19T05:16:30;3.40;;;1.33;;
18239;SDS011;9244;50.828;4.718;2023-11-19T05:18:58;0.20;;;0.20;;
18239;SDS011;9244;50.828;4.718;2023-11-19T05:21:27;0.83;;;0.83;;
18239;SDS011;9244;50.828;4.718;2023-11-19T05:23:53;0.07;;;0.07;;
18239;SDS011;9244;50.828;4.718;2023-11-19T05:26:19;6.17;;;2.17;;
18239;SDS011;9244;50.828;4.718;2023-11-19T05:28:49;0.30;;;0.30;;
18239;SDS011;9244;50.828;4.718;2023-11-19T05:31:15;1.77;;;1.67;;
18239;SDS011;9244;50.828;4.718;2023-11-19T05:33:42;0.00;;;0.00;;
18239;SDS011;9244;50.828;4.718;2023-11-19T05:36:12;15.57;;;2.33;;
18239;SDS011;9244;50.828;4.718;2023-11-19T05:38:38;1.30;;;1.27;;
18239;SDS011;9244;50.828;4.718;2023-11-19T05:41:07;27.23;;;2.10;;
18239;SDS011;9244;50.828;4.718;2023-11-19T05:43:34;0.97;;;0.77;;
18239;SDS011;9244;50.828;4.718;2023-11-19T05:46:00;1.47;;;1.07;;
18239;SDS011;9244;50.828;4.718;2023-11-19T05:48:28;0.10;;;0.10;;
18239;SDS011;9244;50.828;4.718;2023-11-19T05:50:57;0.10;;;0.10;;
18239;SDS011;9244;50.828;4.718;2023-11-19T05:53:25;0.77;;;0.77;;
18239;SDS011;9244;50.828;4.718;2023-11-19T05:55:50;1.07;;;0.97;;
18239;SDS011;9244;50.828;4.718;2023-11-19T05:58:25;0.63;;;0.63;;
18239;SDS011;9244;50.828;4.718;2023-11-19T06:00:52;2.00;;;1.90;;
18239;SDS011;9244;50.828;4.718;2023-11-19T06:03:17;0.20;;;0.20;;
18239;SDS011;9244;50.828;4.718;2023-11-19T06:05:46;0.00;;;0.00;;
18239;SDS011;9244;50.828;4.718;2023-11-19T06:08:13;9.13;;;1.80;;
18239;SDS011;9244;50.828;4.718;2023-11-19T06:10:45;13.53;;;3.80;;
18239;SDS011;9244;50.828;4.718;2023-11-19T06:13:18;22.87;;;4.50;;
18239;SDS011;9244;50.828;4.718;2023-11-19T06:15:44;19.37;;;4.60;;
18239;SDS011;9244;50.828;4.718;2023-11-19T06:18:10;17.10;;;4.17;;
18239;SDS011;9244;50.828;4.718;2023-11-19T06:20:37;24.13;;;4.40;;
18239;SDS011;9244;50.828;4.718;2023-11-19T06:23:05;18.80;;;3.50;;
18239;SDS011;9244;50.828;4.718;2023-11-19T06:25:31;17.93;;;3.77;;
18239;SDS011;9244;50.828;4.718;2023-11-19T06:28:00;20.90;;;6.27;;
18239;SDS011;9244;50.828;4.718;2023-11-19T06:30:26;22.80;;;4.97;;
18239;SDS011;9244;50.828;4.718;2023-11-19T06:32:53;16.03;;;3.93;;
18239;SDS011;9244;50.828;4.718;2023-11-19T06:35:19;21.37;;;4.50;;
18239;SDS011;9244;50.828;4.718;2023-11-19T06:37:47;22.27;;;4.30;;
18239;SDS011;9244;50.828;4.718;2023-11-19T06:40:14;27.27;;;5.33;;
18239;SDS011;9244;50.828;4.718;2023-11-19T06:42:42;17.03;;;4.30;;
18239;SDS011;9244;50.828;4.718;2023-11-19T06:45:10;13.37;;;2.97;;
18239;SDS011;9244;50.828;4.718;2023-11-19T06:47:36;15.37;;;3.23;;
18239;SDS011;9244;50.828;4.718;2023-11-19T06:50:01;19.57;;;4.37;;
18239;SDS011;9244;50.828;4.718;2023-11-19T06:52:30;18.47;;;4.23;;
18239;SDS011;9244;50.828;4.718;2023-11-19T06:54:56;18.60;;;4.20;;
18239;SDS011;9244;50.828;4.718;2023-11-19T06:57:22;20.73;;;4.43;;
18239;SDS011;9244;50.828;4.718;2023-11-19T06:59:48;20.17;;;4.93;;
18239;SDS011;9244;50.828;4.718;2023-11-19T07:02:16;20.63;;;5.27;;
18239;SDS011;9244;50.828;4.718;2023-11-19T07:04:42;13.57;;;2.90;;
18239;SDS011;9244;50.828;4.718;2023-11-19T07:07:10;22.30;;;5.07;;
18239;SDS011;9244;50.828;4.718;2023-11-19T07:09:35;21.10;;;3.87;;
18239;SDS011;9244;50.828;4.718;2023-11-19T07:12:04;23.77;;;4.80;;
18239;SDS011;9244;50.828;4.718;2023-11-19T07:14:30;21.30;;;4.60;;
18239;SDS011;9244;50.828;4.718;2023-11-19T07:16:58;21.70;;;4.63;;
18239;SDS011;9244;50.828;4.718;2023-11-19T07:19:25;21.03;;;3.50;;
18239;SDS011;9244;50.828;4.718;2023-11-19T07:21:55;16.77;;;4.10;;
18239;SDS011;9244;50.828;4.718;2023-11-19T07:24:23;24.53;;;4.83;;
18239;SDS011;9244;50.828;4.718;2023-11-19T07:26:53;18.43;;;4.07;;
18239;SDS011;9244;50.828;4.718;2023-11-19T07:29:23;20.30;;;4.20;;
18239;SDS011;9244;50.828;4.718;2023-11-19T07:31:49;20.57;;;4.30;;
18239;SDS011;9244;50.828;4.718;2023-11-19T07:34:17;14.43;;;3.80;;
18239;SDS011;9244;50.828;4.718;2023-11-19T07:36:48;14.73;;;3.10;;
18239;SDS011;9244;50.828;4.718;2023-11-19T07:39:14;19.63;;;4.17;;
18239;SDS011;9244;50.828;4.718;2023-11-19T07:41:42;21.13;;;4.70;;
18239;SDS011;9244;50.828;4.718;2023-11-19T07:44:08;14.97;;;4.13;;
18239;SDS011;9244;50.828;4.718;2023-11-19T07:46:36;24.63;;;4.30;;
18239;SDS011;9244;50.828;4.718;2023-11-19T07:49:02;35.47;;;4.70;;
18239;SDS011;9244;50.828;4.718;2023-11-19T07:51:30;15.30;;;4.17;;
18239;SDS011;9244;50.828;4.718;2023-11-19T07:53:56;18.67;;;4.33;;
18239;SDS011;9244;50.828;4.718;2023-11-19T07:56:24;17.37;;;4.23;;
18239;SDS011;9244;50.828;4.718;2023-11-19T07:58:49;22.37;;;4.40;;
18239;SDS011;9244;50.828;4.718;2023-11-19T08:01:15;22.63;;;5.43;;
18239;SDS011;9244;50.828;4.718;2023-11-19T08:03:41;28.77;;;4.67;;
18239;SDS011;9244;50.828;4.718;2023-11-19T08:06:07;15.97;;;4.17;;
18239;SDS011;9244;50.828;4.718;2023-11-19T08:08:35;20.70;;;4.57;;
18239;SDS011;9244;50.828;4.718;2023-11-19T08:11:03;16.83;;;3.67;;
18239;SDS011;9244;50.828;4.718;2023-11-19T08:13:32;15.30;;;4.07;;
18239;SDS011;9244;50.828;4.718;2023-11-19T08:16:00;14.23;;;2.57;;
18239;SDS011;9244;50.828;4.718;2023-11-19T08:18:28;19.80;;;4.03;;
18239;SDS011;9244;50.828;4.718;2023-11-19T08:20:53;14.43;;;4.00;;
18239;SDS011;9244;50.828;4.718;2023-11-19T08:23:21;18.30;;;3.77;;
18239;SDS011;9244;50.828;4.718;2023-11-19T08:25:48;24.07;;;4.90;;
18239;SDS011;9244;50.828;4.718;2023-11-19T08:28:14;21.93;;;4.80;;
18239;SDS011;9244;50.828;4.718;2023-11-19T08:30:40;17.70;;;5.13;;
18239;SDS011;9244;50.828;4.718;2023-11-19T08:33:08;18.20;;;5.43;;
18239;SDS011;9244;50.828;4.718;2023-11-19T08:35:36;18.60;;;4.83;;
18239;SDS011;9244;50.828;4.718;2023-11-19T08:38:02;19.13;;;4.53;;
18239;SDS011;9244;50.828;4.718;2023-11-19T08:40:30;17.80;;;4.07;;
18239;SDS011;9244;50.828;4.718;2023-11-19T08:42:56;21.33;;;4.67;;
18239;SDS011;9244;50.828;4.718;2023-11-19T08:45:22;13.60;;;4.23;;
18239;SDS011;9244;50.828;4.718;2023-11-19T08:47:48;20.63;;;4.20;;
18239;SDS011;9244;50.828;4.718;2023-11-19T08:50:18;19.67;;;5.07;;
18239;SDS011;9244;50.828;4.718;2023-11-19T08:52:47;16.77;;;4.57;;
18239;SDS011;9244;50.828;4.718;2023-11-19T08:55:12;17.23;;;4.53;;
18239;SDS011;9244;50.828;4.718;2023-11-19T08:57:38;18.83;;;4.43;;
18239;SDS011;9244;50.828;4.718;2023-11-19T09:00:09;11.10;;;2.97;;
18239;SDS011;9244;50.828;4.718;2023-11-19T09:02:41;21.37;;;4.70;;
18239;SDS011;9244;50.828;4.718;2023-11-19T09:05:08;23.27;;;4.93;;
18239;SDS011;9244;50.828;4.718;2023-11-19T09:07:33;17.20;;;4.27;;
18239;SDS011;9244;50.828;4.718;2023-11-19T09:09:59;21.30;;;5.50;;
18239;SDS011;9244;50.828;4.718;2023-11-19T09:12:25;18.77;;;4.63;;
18239;SDS011;9244;50.828;4.718;2023-11-19T09:14:50;14.83;;;4.03;;
18239;SDS011;9244;50.828;4.718;2023-11-19T09:17:16;21.97;;;3.33;;
18239;SDS011;9244;50.828;4.718;2023-11-19T09:19:43;19.20;;;4.60;;
18239;SDS011;9244;50.828;4.718;2023-11-19T09:22:10;22.80;;;4.43;;
18239;SDS011;9244;50.828;4.718;2023-11-19T09:24:36;25.37;;;5.37;;
18239;SDS011;9244;50.828;4.718;2023-11-19T09:27:02;16.67;;;4.60;;
18239;SDS011;9244;50.828;4.718;2023-11-19T09:29:27;17.80;;;4.87;;
18239;SDS011;9244;50.828;4.718;2023-11-19T09:31:58;17.90;;;3.87;;
18239;SDS011;9244;50.828;4.718;2023-11-19T09:34:24;16.10;;;4.40;;
18239;SDS011;9244;50.828;4.718;2023-11-19T09:36:52;12.43;;;3.70;;
18239;SDS011;9244;50.828;4.718;2023-11-19T09:39:17;17.43;;;4.13;;
18239;SDS011;9244;50.828;4.718;2023-11-19T09:41:46;16.60;;;3.60;;
18239;SDS011;9244;50.828;4.718;2023-11-19T09:44:15;22.60;;;6.77;;
18239;SDS011;9244;50.828;4.718;2023-11-19T09:46:43;11.00;;;3.17;;
18239;SDS011;9244;50.828;4.718;2023-11-19T09:49:09;9.97;;;2.73;;
18239;SDS011;9244;50.828;4.718;2023-11-19T09:51:36;13.93;;;3.43;;
18239;SDS011;9244;50.828;4.718;2023-11-19T09:54:02;14.03;;;3.43;;
18239;SDS011;9244;50.828;4.718;2023-11-19T09:56:30;10.17;;;3.00;;
18239;SDS011;9244;50.828;4.718;2023-11-19T09:58:57;12.80;;;3.40;;
18239;SDS011;9244;50.828;4.718;2023-11-19T10:01:24;10.83;;;2.90;;
18239;SDS011;9244;50.828;4.718;2023-11-19T10:03:50;9.83;;;3.33;;
18239;SDS011;9244;50.828;4.718;2023-11-19T10:06:17;15.13;;;4.37;;
18239;SDS011;9244;50.828;4.718;2023-11-19T10:08:44;11.57;;;3.30;;
18239;SDS011;9244;50.828;4.718;2023-11-19T10:11:09;12.83;;;3.23;;
18239;SDS011;9244;50.828;4.718;2023-11-19T10:13:37;12.50;;;3.63;;
18239;SDS011;9244;50.828;4.718;2023-11-19T10:16:17;13.07;;;2.77;;
18239;SDS011;9244;50.828;4.718;2023-11-19T10:18:44;10.60;;;3.17;;
18239;SDS011;9244;50.828;4.718;2023-11-19T10:21:17;16.20;;;4.03;;
18239;SDS011;9244;50.828;4.718;2023-11-19T10:26:17;14.03;;;3.30;;
18239;SDS011;9244;50.828;4.718;2023-11-19T10:28:46;13.97;;;3.60;;
18239;SDS011;9244;50.828;4.718;2023-11-19T10:31:15;13.57;;;4.00;;
18239;SDS011;9244;50.828;4.718;2023-11-19T10:33:43;11.90;;;2.30;;
18239;SDS011;9244;50.828;4.718;2023-11-19T10:36:12;12.10;;;3.07;;
18239;SDS011;9244;50.828;4.718;2023-11-19T10:38:40;19.27;;;4.13;;
18239;SDS011;9244;50.828;4.718;2023-11-19T10:41:28;16.53;;;2.80;;
18239;SDS011;9244;50.828;4.718;2023-11-19T10:43:54;12.50;;;3.40;;
18239;SDS011;9244;50.828;4.718;2023-11-19T10:46:19;12.60;;;3.50;;
18239;SDS011;9244;50.828;4.718;2023-11-19T10:48:48;16.13;;;4.10;;
18239;SDS011;9244;50.828;4.718;2023-11-19T10:51:20;15.03;;;3.43;;
18239;SDS011;9244;50.828;4.718;2023-11-19T10:53:47;12.53;;;3.87;;
18239;SDS011;9244;50.828;4.718;2023-11-19T10:56:15;14.83;;;4.13;;
18239;SDS011;9244;50.828;4.718;2023-11-19T10:58:44;15.83;;;2.73;;
18239;SDS011;9244;50.828;4.718;2023-11-19T11:01:19;9.23;;;2.77;;
18239;SDS011;9244;50.828;4.718;2023-11-19T11:03:50;13.43;;;3.00;;
18239;SDS011;9244;50.828;4.718;2023-11-19T11:06:21;10.70;;;2.70;;
18239;SDS011;9244;50.828;4.718;2023-11-19T11:08:48;8.63;;;2.80;;
18239;SDS011;9244;50.828;4.718;2023-11-19T11:11:18;6.87;;;1.83;;
18239;SDS011;9244;50.828;4.718;2023-11-19T11:13:48;10.43;;;2.60;;
18239;SDS011;9244;50.828;4.718;2023-11-19T11:16:18;8.20;;;2.43;;
18239;SDS011;9244;50.828;4.718;2023-11-19T11:18:44;11.45;;;3.58;;
18239;SDS011;9244;50.828;4.718;2023-11-19T11:21:14;12.50;;;2.97;;
18239;SDS011;9244;50.828;4.718;2023-11-19T11:32:42;16.03;;;3.37;;
18239;SDS011;9244;50.828;4.718;2023-11-19T11:38:06;10.27;;;3.67;;
18239;SDS011;9244;50.828;4.718;2023-11-19T11:40:35;16.63;;;2.90;;
18239;SDS011;9244;50.828;4.718;2023-11-19T11:43:01;8.32;;;2.70;;
18239;SDS011;9244;50.828;4.718;2023-11-19T11:45:39;11.83;;;3.33;;
18239;SDS011;9244;50.828;4.718;2023-11-19T11:50:47;13.43;;;3.47;;
18239;SDS011;9244;50.828;4.718;2023-11-19T11:53:13;9.50;;;2.40;;
18239;SDS011;9244;50.828;4.718;2023-11-19T11:58:19;17.55;;;3.92;;
18239;SDS011;9244;50.828;4.718;2023-11-19T12:00:46;13.32;;;3.83;;
18239;SDS011;9244;50.828;4.718;2023-11-19T12:03:15;12.48;;;3.55;;
18239;SDS011;9244;50.828;4.718;2023-11-19T12:05:47;13.25;;;2.85;;
18239;SDS011;9244;50.828;4.718;2023-11-19T12:08:13;14.32;;;3.28;;
18239;SDS011;9244;50.828;4.718;2023-11-19T12:10:47;10.68;;;3.78;;
18239;SDS011;9244;50.828;4.718;2023-11-19T12:13:17;8.85;;;3.10;;
18239;SDS011;9244;50.828;4.718;2023-11-19T12:18:27;5.82;;;2.05;;
18239;SDS011;9244;50.828;4.718;2023-11-19T12:20:54;14.07;;;3.63;;
18239;SDS011;9244;50.828;4.718;2023-11-19T12:23:21;10.70;;;3.10;;
18239;SDS011;9244;50.828;4.718;2023-11-19T12:25:54;9.60;;;2.75;;
18239;SDS011;9244;50.828;4.718;2023-11-19T12:28:22;10.63;;;2.55;;
18239;SDS011;9244;50.828;4.718;2023-11-19T12:30:54;22.10;;;2.95;;
18239;SDS011;9244;50.828;4.718;2023-11-19T12:33:35;5.57;;;1.95;;
18239;SDS011;9244;50.828;4.718;2023-11-19T12:36:01;4.88;;;1.80;;
18239;SDS011;9244;50.828;4.718;2023-11-19T12:38:32;8.00;;;2.30;;
18239;SDS011;9244;50.828;4.718;2023-11-19T12:41:07;12.32;;;2.85;;
18239;SDS011;9244;50.828;4.718;2023-11-19T12:43:35;9.48;;;2.38;;
18239;SDS011;9244;50.828;4.718;2023-11-19T12:46:02;10.20;;;3.10;;
18239;SDS011;9244;50.828;4.718;2023-11-19T12:48:29;11.67;;;3.23;;
18239;SDS011;9244;50.828;4.718;2023-11-19T12:50:55;8.60;;;2.37;;
18239;SDS011;9244;50.828;4.718;2023-11-19T12:53:25;10.03;;;2.37;;
18239;SDS011;9244;50.828;4.718;2023-11-19T12:55:54;7.97;;;2.93;;
18239;SDS011;9244;50.828;4.718;2023-11-19T12:58:33;15.67;;;3.47;;
18239;SDS011;9244;50.828;4.718;2023-11-19T13:01:07;12.57;;;3.20;;
18239;SDS011;9244;50.828;4.718;2023-11-19T13:03:35;6.87;;;2.00;;
18239;SDS011;9244;50.828;4.718;2023-11-19T13:06:09;14.15;;;3.92;;
18239;SDS011;9244;50.828;4.718;2023-11-19T13:08:40;12.82;;;3.55;;
18239;SDS011;9244;50.828;4.718;2023-11-19T13:11:06;11.38;;;3.08;;
18239;SDS011;9244;50.828;4.718;2023-11-19T13:14:20;15.75;;;5.25;;
18239;SDS011;9244;50.828;4.718;2023-11-19T13:16:22;13.82;;;3.20;;
18239;SDS011;9244;50.828;4.718;2023-11-19T13:18:51;14.55;;;3.70;;
18239;SDS011;9244;50.828;4.718;2023-11-19T13:21:17;12.88;;;3.33;;
18239;SDS011;9244;50.828;4.718;2023-11-19T13:23:43;11.82;;;3.13;;
18239;SDS011;9244;50.828;4.718;2023-11-19T13:26:10;12.77;;;3.10;;
18239;SDS011;9244;50.828;4.718;2023-11-19T13:28:40;15.52;;;4.13;;
18239;SDS011;9244;50.828;4.718;2023-11-19T13:31:06;16.10;;;4.30;;
18239;SDS011;9244;50.828;4.718;2023-11-19T13:33:32;9.13;;;2.85;;
18239;SDS011;9244;50.828;4.718;2023-11-19T13:35:59;17.43;;;3.73;;
18239;SDS011;9244;50.828;4.718;2023-11-19T13:38:34;10.53;;;3.47;;
18239;SDS011;9244;50.828;4.718;2023-11-19T13:41:04;13.33;;;3.20;;
18239;SDS011;9244;50.828;4.718;2023-11-19T13:43:30;12.70;;;3.00;;
18239;SDS011;9244;50.828;4.718;2023-11-19T13:45:56;14.07;;;3.23;;
18239;SDS011;9244;50.828;4.718;2023-11-19T13:48:25;13.63;;;3.30;;
18239;SDS011;9244;50.828;4.718;2023-11-19T13:50:57;16.23;;;3.10;;
18239;SDS011;9244;50.828;4.718;2023-11-19T13:53:23;17.73;;;3.40;;
18239;SDS011;9244;50.828;4.718;2023-11-19T13:55:49;15.60;;;3.10;;
18239;SDS011;9244;50.828;4.718;2023-11-19T13:58:15;12.97;;;2.70;;
18239;SDS011;9244;50.828;4.718;2023-11-19T14:00:41;16.77;;;4.27;;
18239;SDS011;9244;50.828;4.718;2023-11-19T14:03:07;16.67;;;3.97;;
18239;SDS011;9244;50.828;4.718;2023-11-19T14:05:33;18.20;;;4.30;;
18239;SDS011;9244;50.828;4.718;2023-11-19T14:07:58;11.43;;;3.13;;
18239;SDS011;9244;50.828;4.718;2023-11-19T14:10:24;17.63;;;3.70;;
18239;SDS011;9244;50.828;4.718;2023-11-19T14:12:49;13.53;;;4.07;;
18239;SDS011;9244;50.828;4.718;2023-11-19T14:15:15;13.23;;;2.83;;
18239;SDS011;9244;50.828;4.718;2023-11-19T14:17:42;10.87;;;2.73;;
18239;SDS011;9244;50.828;4.718;2023-11-19T14:20:10;15.57;;;2.87;;
18239;SDS011;9244;50.828;4.718;2023-11-19T14:22:39;11.67;;;3.50;;
18239;SDS011;9244;50.828;4.718;2023-11-19T14:25:05;17.23;;;4.63;;
18239;SDS011;9244;50.828;4.718;2023-11-19T14:27:38;12.33;;;3.07;;
18239;SDS011;9244;50.828;4.718;2023-11-19T14:30:10;13.40;;;3.47;;
18239;SDS011;9244;50.828;4.718;2023-11-19T14:32:38;17.63;;;3.90;;
18239;SDS011;9244;50.828;4.718;2023-11-19T14:35:05;19.73;;;3.53;;
18239;SDS011;9244;50.828;4.718;2023-11-19T14:37:31;12.73;;;3.40;;
18239;SDS011;9244;50.828;4.718;2023-11-19T14:39:57;14.23;;;4.17;;
18239;SDS011;9244;50.828;4.718;2023-11-19T14:42:29;9.47;;;3.10;;
18239;SDS011;9244;50.828;4.718;2023-11-19T14:44:55;13.83;;;3.57;;
18239;SDS011;9244;50.828;4.718;2023-11-19T14:47:20;19.97;;;4.30;;
18239;SDS011;9244;50.828;4.718;2023-11-19T14:49:46;14.83;;;3.73;;
18239;SDS011;9244;50.828;4.718;2023-11-19T14:52:12;16.43;;;3.67;;
18239;SDS011;9244;50.828;4.718;2023-11-19T14:54:39;11.37;;;2.50;;
18239;SDS011;9244;50.828;4.718;2023-11-19T14:57:05;9.90;;;3.40;;
18239;SDS011;9244;50.828;4.718;2023-11-19T14:59:33;12.60;;;3.33;;
18239;SDS011;9244;50.828;4.718;2023-11-19T15:01:59;18.13;;;4.63;;
18239;SDS011;9244;50.828;4.718;2023-11-19T15:04:27;12.67;;;3.23;;
18239;SDS011;9244;50.828;4.718;2023-11-19T15:06:57;14.77;;;3.80;;
18239;SDS011;9244;50.828;4.718;2023-11-19T15:09:23;11.43;;;3.63;;
18239;SDS011;9244;50.828;4.718;2023-11-19T15:11:49;6.17;;;2.20;;
18239;SDS011;9244;50.828;4.718;2023-11-19T15:14:18;14.50;;;2.97;;
18239;SDS011;9244;50.828;4.718;2023-11-19T15:16:45;16.47;;;4.33;;
18239;SDS011;9244;50.828;4.718;2023-11-19T15:19:11;12.17;;;3.47;;
18239;SDS011;9244;50.828;4.718;2023-11-19T15:21:38;16.10;;;4.30;;